Time;durP1;ratioP1;P1;durP2;ratioP2;P2;SDS_P1;SDS_P2;PMS_P1;PMS_P2;Temp;Humidity;BMP_temperature;BMP_pressure;BME280_temperature;BME280_humidity;BME280_pressure;Samples;Min_cycle;Max_cycle;Signal;HPM_P1;HPM_P2
2023/07/16 00:02:05;;;;;;;2.40;1.15;;;;;;;;;;5048987;28;20123;-82
2023/07/16 00:04:32;;;;;;;3.28;1.67;;;;;;;;;;5079621;28;20131;-82
2023/07/16 00:07:00;;;;;;;4.18;1.42;;;;;;;;;;5050612;28;20051;-82
2023/07/16 00:09:26;;;;;;;2.50;1.35;;;;;;;;;;5046518;28;20045;-82
2023/07/16 00:11:52;;;;;;;2.03;1.25;;;;;;;;;;5048603;28;20057;-82
2023/07/16 00:14:18;;;;;;;1.90;1.23;;;;;;;;;;5036763;28;20124;-82
2023/07/16 00:16:44;;;;;;;4.35;1.77;;;;;;;;;;5070450;28;20050;-82
2023/07/16 00:19:12;;;;;;;4.10;1.73;;;;;;;;;;5068426;28;20045;-82
2023/07/16 00:21:39;;;;;;;1.48;1.10;;;;;;;;;;5045224;28;20098;-81
2023/07/16 00:24:05;;;;;;;4.10;2.10;;;;;;;;;;5047215;28;20052;-82
2023/07/16 00:26:31;;;;;;;4.00;1.48;;;;;;;;;;5049781;28;20296;-82
2023/07/16 00:28:57;;;;;;;4.43;1.65;;;;;;;;;;5060773;28;20109;-82
2023/07/16 00:31:23;;;;;;;4.00;1.65;;;;;;;;;;5058168;28;20037;-82
2023/07/16 00:33:49;;;;;;;3.15;1.85;;;;;;;;;;5047121;28;20483;-82
2023/07/16 00:36:15;;;;;;;2.42;1.27;;;;;;;;;;5032335;28;20056;-82
2023/07/16 00:38:42;;;;;;;4.50;1.48;;;;;;;;;;5066957;28;20116;-82
2023/07/16 00:41:08;;;;;;;2.92;1.42;;;;;;;;;;5047349;28;20045;-82
2023/07/16 00:43:34;;;;;;;4.07;1.75;;;;;;;;;;5042590;28;20087;-82
2023/07/16 00:46:00;;;;;;;7.22;1.83;;;;;;;;;;5039031;28;20148;-82
2023/07/16 00:48:27;;;;;;;3.90;1.50;;;;;;;;;;5036307;28;20045;-82
2023/07/16 00:50:53;;;;;;;3.13;1.55;;;;;;;;;;5047498;28;20041;-82
2023/07/16 00:53:20;;;;;;;5.63;1.52;;;;;;;;;;5047006;28;20057;-82
2023/07/16 00:55:46;;;;;;;2.88;1.60;;;;;;;;;;5050158;28;20033;-82
2023/07/16 00:58:12;;;;;;;4.43;1.48;;;;;;;;;;5036536;28;20437;-82
2023/07/16 01:00:39;;;;;;;4.88;1.55;;;;;;;;;;5027193;28;20489;-82
2023/07/16 01:03:11;;;;;;;5.00;1.50;;;;;;;;;;5042976;28;20037;-82
2023/07/16 01:05:56;;;;;;;6.18;1.80;;;;;;;;;;5045542;28;20053;-82
2023/07/16 01:08:31;;;;;;;2.40;1.48;;;;;;;;;;5040489;28;20045;-82
2023/07/16 01:10:58;;;;;;;3.38;1.63;;;;;;;;;;5072005;28;20045;-82
2023/07/16 01:13:24;;;;;;;3.75;1.42;;;;;;;;;;5047978;28;20049;-82
2023/07/16 01:15:50;;;;;;;2.50;1.48;;;;;;;;;;5037599;28;20052;-82
2023/07/16 01:18:16;;;;;;;4.00;1.85;;;;;;;;;;5041181;28;20447;-82
2023/07/16 01:20:43;;;;;;;9.05;3.10;;;;;;;;;;5048388;28;20120;-82
2023/07/16 01:23:18;;;;;;;4.93;1.60;;;;;;;;;;5048315;28;20041;-82
2023/07/16 01:25:55;;;;;;;3.10;1.52;;;;;;;;;;5065154;28;20115;-82
2023/07/16 01:28:45;;;;;;;5.05;1.63;;;;;;;;;;5064414;28;20482;-82
2023/07/16 01:31:11;;;;;;;4.63;1.80;;;;;;;;;;5066681;28;20041;-81
2023/07/16 01:33:38;;;;;;;3.28;1.85;;;;;;;;;;5049219;28;20505;-81
2023/07/16 01:36:05;;;;;;;6.15;1.83;;;;;;;;;;5050842;28;20398;-81
2023/07/16 01:38:31;;;;;;;2.80;2.50;;;;;;;;;;5051282;28;20048;-81
2023/07/16 01:40:57;;;;;;;5.78;2.00;;;;;;;;;;5034358;28;20045;-82
2023/07/16 01:43:23;;;;;;;5.03;2.10;;;;;;;;;;5016895;28;20045;-82
2023/07/16 01:45:49;;;;;;;4.25;1.92;;;;;;;;;;5053501;28;20044;-81
2023/07/16 01:48:31;;;;;;;3.40;2.25;;;;;;;;;;5051354;28;20041;-82
2023/07/16 01:50:57;;;;;;;3.95;2.00;;;;;;;;;;5052033;28;20041;-81
2023/07/16 01:53:23;;;;;;;6.85;2.22;;;;;;;;;;5048997;28;20488;-82
2023/07/16 01:55:49;;;;;;;5.32;2.15;;;;;;;;;;5049259;28;20111;-81
2023/07/16 01:58:15;;;;;;;5.80;2.38;;;;;;;;;;5050225;28;20091;-81
2023/07/16 02:00:41;;;;;;;6.35;2.13;;;;;;;;;;5050835;28;20507;-81
2023/07/16 02:03:08;;;;;;;4.47;2.28;;;;;;;;;;5039537;28;20041;-81
2023/07/16 02:05:34;;;;;;;4.90;2.28;;;;;;;;;;5064237;28;20050;-81
2023/07/16 02:08:00;;;;;;;3.25;2.38;;;;;;;;;;5041957;28;20493;-81
2023/07/16 02:10:26;;;;;;;8.43;2.70;;;;;;;;;;5067164;28;20037;-81
2023/07/16 02:12:52;;;;;;;5.60;2.35;;;;;;;;;;5036036;28;20100;-82
2023/07/16 02:15:19;;;;;;;4.63;2.25;;;;;;;;;;5049552;28;20091;-82
2023/07/16 02:17:45;;;;;;;6.50;2.45;;;;;;;;;;5049114;28;20041;-81
2023/07/16 02:20:11;;;;;;;6.25;2.50;;;;;;;;;;5069300;28;20082;-81
2023/07/16 02:22:38;;;;;;;4.22;2.30;;;;;;;;;;5055822;28;20133;-81
2023/07/16 02:25:04;;;;;;;6.43;2.33;;;;;;;;;;5035809;28;20042;-82
2023/07/16 02:27:30;;;;;;;6.25;2.70;;;;;;;;;;5038739;28;20044;-81
2023/07/16 02:29:56;;;;;;;4.70;2.42;;;;;;;;;;5050342;28;20438;-81
2023/07/16 02:32:22;;;;;;;7.00;2.22;;;;;;;;;;5047243;28;20037;-82
2023/07/16 02:34:49;;;;;;;4.57;2.42;;;;;;;;;;5049460;28;20045;-81
2023/07/16 02:37:15;;;;;;;9.50;2.30;;;;;;;;;;5046462;28;20120;-81
2023/07/16 02:39:41;;;;;;;4.10;2.53;;;;;;;;;;5036865;28;20044;-82
2023/07/16 02:42:08;;;;;;;6.68;2.65;;;;;;;;;;5049821;28;20381;-81
2023/07/16 02:44:38;;;;;;;5.57;2.30;;;;;;;;;;5048051;28;20048;-82
2023/07/16 02:47:04;;;;;;;5.43;2.15;;;;;;;;;;5053001;28;20076;-82
2023/07/16 02:49:30;;;;;;;4.05;2.22;;;;;;;;;;5032470;28;20055;-82
2023/07/16 02:51:56;;;;;;;4.65;2.72;;;;;;;;;;5048855;28;20106;-82
2023/07/16 02:54:22;;;;;;;4.32;2.03;;;;;;;;;;5050027;28;20385;-81
2023/07/16 02:56:48;;;;;;;5.90;2.35;;;;;;;;;;5048397;28;20037;-82
2023/07/16 02:59:14;;;;;;;8.43;2.33;;;;;;;;;;5049389;28;20062;-81
2023/07/16 03:01:40;;;;;;;6.47;2.42;;;;;;;;;;5044629;28;20073;-82
2023/07/16 03:04:06;;;;;;;5.25;2.60;;;;;;;;;;5045075;28;20041;-81
2023/07/16 03:06:32;;;;;;;7.60;2.33;;;;;;;;;;5048878;28;20091;-81
2023/07/16 03:08:58;;;;;;;3.88;2.25;;;;;;;;;;5046836;28;20053;-81
2023/07/16 03:11:25;;;;;;;2.95;1.95;;;;;;;;;;5063140;28;20116;-82
2023/07/16 03:13:51;;;;;;;6.32;3.10;;;;;;;;;;5053399;28;20116;-81
2023/07/16 03:16:17;;;;;;;4.47;3.08;;;;;;;;;;5043561;28;20052;-81
2023/07/16 03:18:45;;;;;;;8.98;2.65;;;;;;;;;;5047094;28;20148;-81
2023/07/16 03:21:11;;;;;;;3.38;2.50;;;;;;;;;;5049285;28;20056;-81
2023/07/16 03:23:37;;;;;;;6.75;2.20;;;;;;;;;;5047030;28;20041;-81
2023/07/16 03:26:03;;;;;;;6.93;2.55;;;;;;;;;;5050072;28;20131;-82
2023/07/16 03:28:29;;;;;;;4.72;2.53;;;;;;;;;;5045437;28;20057;-82
2023/07/16 03:30:55;;;;;;;4.78;2.47;;;;;;;;;;5077888;28;20076;-81
2023/07/16 03:33:21;;;;;;;5.25;2.80;;;;;;;;;;5039594;28;20413;-82
2023/07/16 03:35:48;;;;;;;7.43;3.03;;;;;;;;;;5030128;28;20120;-81
2023/07/16 03:38:14;;;;;;;6.18;3.58;;;;;;;;;;5049851;28;20040;-81
2023/07/16 03:40:43;;;;;;;5.55;2.50;;;;;;;;;;5033754;28;20041;-81
2023/07/16 03:43:09;;;;;;;4.32;2.63;;;;;;;;;;5052345;28;20095;-81
2023/07/16 03:45:35;;;;;;;4.65;2.28;;;;;;;;;;5050748;28;20181;-82
2023/07/16 03:48:01;;;;;;;6.25;3.40;;;;;;;;;;5047384;28;20124;-82
2023/07/16 03:50:27;;;;;;;6.28;3.20;;;;;;;;;;5048489;28;20456;-81
2023/07/16 03:52:53;;;;;;;6.18;2.17;;;;;;;;;;5046868;28;20484;-81
2023/07/16 03:55:19;;;;;;;6.32;2.85;;;;;;;;;;5047874;28;20037;-81
2023/07/16 03:57:45;;;;;;;6.75;2.60;;;;;;;;;;5042233;28;20041;-81
2023/07/16 04:00:11;;;;;;;5.45;2.60;;;;;;;;;;5040316;28;20452;-81
2023/07/16 04:02:38;;;;;;;7.63;2.95;;;;;;;;;;5041712;28;20527;-81
2023/07/16 04:05:04;;;;;;;6.15;2.58;;;;;;;;;;5048034;28;20047;-82
2023/07/16 04:07:30;;;;;;;7.28;2.88;;;;;;;;;;5046762;28;20510;-81
2023/07/16 04:09:56;;;;;;;5.60;2.53;;;;;;;;;;5065843;28;20920;-82
2023/07/16 04:12:22;;;;;;;7.38;2.63;;;;;;;;;;5058604;28;20546;-82
2023/07/16 04:14:48;;;;;;;4.80;2.45;;;;;;;;;;5068655;28;20045;-81
2023/07/16 04:17:14;;;;;;;3.20;2.20;;;;;;;;;;5064721;28;20448;-82
2023/07/16 04:19:40;;;;;;;3.63;2.70;;;;;;;;;;5048465;28;20041;-82
2023/07/16 04:22:06;;;;;;;5.20;2.50;;;;;;;;;;5039273;28;20128;-81
2023/07/16 04:24:32;;;;;;;4.43;2.40;;;;;;;;;;5045787;28;20040;-81
2023/07/16 04:26:59;;;;;;;6.65;2.92;;;;;;;;;;5044953;28;20086;-82
2023/07/16 04:29:25;;;;;;;7.28;2.30;;;;;;;;;;5046424;28;20037;-82
2023/07/16 04:31:51;;;;;;;4.30;2.30;;;;;;;;;;5046544;28;20040;-82
2023/07/16 04:34:17;;;;;;;5.50;3.00;;;;;;;;;;5046947;28;20040;-81
2023/07/16 04:36:43;;;;;;;3.10;2.05;;;;;;;;;;5052367;28;20392;-82
2023/07/16 04:39:09;;;;;;;4.70;2.35;;;;;;;;;;5049121;28;20056;-82
2023/07/16 04:41:36;;;;;;;5.85;2.50;;;;;;;;;;5047099;28;20409;-81
2023/07/16 04:44:02;;;;;;;8.07;2.95;;;;;;;;;;5034865;28;20091;-82
2023/07/16 04:46:28;;;;;;;7.50;2.83;;;;;;;;;;5043036;28;20107;-82
2023/07/16 04:48:54;;;;;;;4.82;2.35;;;;;;;;;;5047238;28;20057;-82
2023/07/16 04:51:21;;;;;;;5.38;2.58;;;;;;;;;;5049794;28;20040;-81
2023/07/16 04:53:47;;;;;;;3.70;2.72;;;;;;;;;;5034639;28;20120;-80
2023/07/16 04:56:13;;;;;;;5.80;2.47;;;;;;;;;;5047222;28;20049;-81
2023/07/16 04:58:39;;;;;;;4.30;2.13;;;;;;;;;;5044380;28;20044;-81
2023/07/16 05:01:05;;;;;;;6.60;2.58;;;;;;;;;;5048571;28;20045;-79
2023/07/16 05:03:31;;;;;;;4.10;2.20;;;;;;;;;;5046276;28;20501;-81
2023/07/16 05:05:57;;;;;;;8.45;2.83;;;;;;;;;;5051712;28;20080;-80
2023/07/16 05:08:23;;;;;;;6.70;2.60;;;;;;;;;;5047213;28;20053;-80
2023/07/16 05:10:50;;;;;;;3.65;1.95;;;;;;;;;;5043563;28;20520;-80
2023/07/16 05:13:16;;;;;;;7.28;2.65;;;;;;;;;;5047060;28;20056;-80
2023/07/16 05:15:44;;;;;;;5.72;2.70;;;;;;;;;;5051511;28;20044;-80
2023/07/16 05:18:10;;;;;;;7.55;2.55;;;;;;;;;;5039901;28;20421;-80
2023/07/16 05:20:36;;;;;;;9.85;2.63;;;;;;;;;;5060692;28;20475;-79
2023/07/16 05:23:02;;;;;;;4.95;2.45;;;;;;;;;;5050433;28;20084;-80
2023/07/16 05:25:28;;;;;;;4.60;2.25;;;;;;;;;;5051649;28;20102;-80
2023/07/16 05:27:54;;;;;;;4.90;2.30;;;;;;;;;;5051542;28;20048;-81
2023/07/16 05:30:20;;;;;;;4.95;2.17;;;;;;;;;;5053072;28;20045;-81
2023/07/16 05:32:46;;;;;;;6.63;2.45;;;;;;;;;;5046089;28;20105;-80
2023/07/16 05:35:12;;;;;;;5.85;2.47;;;;;;;;;;5052884;28;20044;-79
2023/07/16 05:37:38;;;;;;;4.47;2.40;;;;;;;;;;5058509;28;20048;-80
2023/07/16 05:40:05;;;;;;;4.72;2.67;;;;;;;;;;5057278;28;20182;-79
2023/07/16 05:42:31;;;;;;;3.88;2.05;;;;;;;;;;5057302;28;20040;-79
2023/07/16 05:44:57;;;;;;;3.90;2.58;;;;;;;;;;5052076;28;20041;-79
2023/07/16 05:47:23;;;;;;;5.78;2.50;;;;;;;;;;5047907;28;20433;-78
2023/07/16 05:49:49;;;;;;;5.20;2.72;;;;;;;;;;5063634;28;20535;-78
2023/07/16 05:52:15;;;;;;;3.50;2.20;;;;;;;;;;5051486;28;20037;-77
2023/07/16 05:54:44;;;;;;;6.95;2.63;;;;;;;;;;5052024;28;20106;-79
2023/07/16 05:57:11;;;;;;;6.85;2.45;;;;;;;;;;5070470;28;20040;-83
2023/07/16 05:59:37;;;;;;;9.15;2.97;;;;;;;;;;5050076;28;20071;-82
2023/07/16 06:02:04;;;;;;;4.60;2.65;;;;;;;;;;5042350;28;20044;-81
2023/07/16 06:04:30;;;;;;;5.97;2.75;;;;;;;;;;5053730;28;20041;-84
2023/07/16 06:06:57;;;;;;;6.90;2.80;;;;;;;;;;5050918;28;20487;-84
2023/07/16 06:09:23;;;;;;;5.50;2.20;;;;;;;;;;5033954;28;20425;-85
2023/07/16 06:11:49;;;;;;;6.25;2.70;;;;;;;;;;5032163;28;20106;-84
2023/07/16 06:14:15;;;;;;;8.73;2.75;;;;;;;;;;5040419;28;20041;-83
2023/07/16 06:16:41;;;;;;;6.57;2.67;;;;;;;;;;5030677;28;20049;-84
2023/07/16 06:19:07;;;;;;;4.25;2.67;;;;;;;;;;5058148;28;20090;-83
2023/07/16 06:21:33;;;;;;;6.43;3.25;;;;;;;;;;5071420;28;20143;-85
2023/07/16 06:24:00;;;;;;;5.00;3.10;;;;;;;;;;5070198;28;20089;-81
2023/07/16 06:26:26;;;;;;;5.13;2.85;;;;;;;;;;5037984;28;20041;-83
2023/07/16 06:28:52;;;;;;;4.30;2.33;;;;;;;;;;5030728;28;20048;-85
2023/07/16 06:31:18;;;;;;;6.70;2.80;;;;;;;;;;5032402;28;20041;-83
2023/07/16 06:33:46;;;;;;;5.70;2.83;;;;;;;;;;5053319;28;20086;-83
2023/07/16 06:36:12;;;;;;;5.97;2.85;;;;;;;;;;5056361;28;20470;-85
2023/07/16 06:38:38;;;;;;;7.28;3.10;;;;;;;;;;5052621;28;20456;-82
2023/07/16 06:41:04;;;;;;;4.93;2.63;;;;;;;;;;5054388;28;20489;-82
2023/07/16 06:43:30;;;;;;;4.63;2.65;;;;;;;;;;5030312;28;20466;-86
2023/07/16 06:45:56;;;;;;;6.95;3.13;;;;;;;;;;5046290;28;20041;-85
2023/07/16 06:48:22;;;;;;;4.65;2.60;;;;;;;;;;5056244;28;20059;-82
2023/07/16 06:50:50;;;;;;;7.20;2.38;;;;;;;;;;5048192;28;20473;-81
2023/07/16 06:53:16;;;;;;;5.63;2.63;;;;;;;;;;5045328;28;20425;-83
2023/07/16 06:55:42;;;;;;;4.22;2.60;;;;;;;;;;5041135;28;20041;-84
2023/07/16 06:58:11;;;;;;;8.40;3.22;;;;;;;;;;5053033;28;20033;-90
2023/07/16 07:00:37;;;;;;;5.28;3.08;;;;;;;;;;5049967;28;20131;-86
2023/07/16 07:03:03;;;;;;;6.40;3.40;;;;;;;;;;5054421;28;20045;-85
2023/07/16 07:05:29;;;;;;;5.18;2.88;;;;;;;;;;5039735;28;20041;-86
2023/07/16 07:07:55;;;;;;;4.88;2.75;;;;;;;;;;5043740;28;20549;-83
2023/07/16 07:10:21;;;;;;;4.18;2.33;;;;;;;;;;5050188;28;20079;-85
2023/07/16 07:12:47;;;;;;;8.13;3.60;;;;;;;;;;5060926;28;20053;-84
2023/07/16 07:15:14;;;;;;;6.10;3.30;;;;;;;;;;5055487;28;20044;-83
2023/07/16 07:17:42;;;;;;;5.95;2.47;;;;;;;;;;5056768;28;20045;-84
2023/07/16 07:20:08;;;;;;;4.45;2.42;;;;;;;;;;5049221;28;20087;-85
2023/07/16 07:22:34;;;;;;;6.63;2.75;;;;;;;;;;5046790;28;20036;-85
2023/07/16 07:25:00;;;;;;;4.45;2.13;;;;;;;;;;5053860;28;20142;-83
2023/07/16 07:27:26;;;;;;;5.40;2.35;;;;;;;;;;5044035;28;20053;-84
2023/07/16 07:29:55;;;;;;;5.43;2.78;;;;;;;;;;5059775;28;20040;-87
2023/07/16 07:32:21;;;;;;;4.03;2.53;;;;;;;;;;5044470;28;20048;-83
2023/07/16 07:34:47;;;;;;;6.70;3.08;;;;;;;;;;5053536;28;20036;-82
2023/07/16 07:37:14;;;;;;;6.07;2.88;;;;;;;;;;5035336;28;20044;-82
2023/07/16 07:39:40;;;;;;;5.38;2.45;;;;;;;;;;5037708;28;20040;-83
2023/07/16 07:42:06;;;;;;;6.88;2.78;;;;;;;;;;5052834;28;20068;-83
2023/07/16 07:44:32;;;;;;;6.38;3.30;;;;;;;;;;5050329;28;20124;-82
2023/07/16 07:46:59;;;;;;;6.22;2.80;;;;;;;;;;5042043;28;20394;-81
2023/07/16 07:49:25;;;;;;;7.28;3.00;;;;;;;;;;5040342;28;20090;-79
2023/07/16 07:51:51;;;;;;;7.15;2.88;;;;;;;;;;5037762;28;20037;-80
2023/07/16 07:54:17;;;;;;;5.75;3.08;;;;;;;;;;5047473;28;20090;-80
2023/07/16 07:56:43;;;;;;;5.90;2.75;;;;;;;;;;5048652;28;20037;-81
2023/07/16 07:59:09;;;;;;;7.45;2.80;;;;;;;;;;5050426;28;20187;-83
2023/07/16 08:01:35;;;;;;;4.80;2.28;;;;;;;;;;5045546;28;20065;-82
2023/07/16 08:04:02;;;;;;;6.18;2.50;;;;;;;;;;5042627;28;20054;-81
2023/07/16 08:06:28;;;;;;;6.68;2.97;;;;;;;;;;5038163;28;20033;-81
2023/07/16 08:08:54;;;;;;;5.68;3.20;;;;;;;;;;5046862;28;20039;-86
2023/07/16 08:11:20;;;;;;;5.53;2.67;;;;;;;;;;5047103;28;20045;-81
2023/07/16 08:13:46;;;;;;;3.88;2.60;;;;;;;;;;5027277;28;20136;-81
2023/07/16 08:16:12;;;;;;;4.53;2.95;;;;;;;;;;5037190;28;20036;-82
2023/07/16 08:18:38;;;;;;;6.88;3.47;;;;;;;;;;5041750;28;20175;-82
2023/07/16 08:21:04;;;;;;;5.18;2.60;;;;;;;;;;5037692;28;20235;-81
2023/07/16 08:23:30;;;;;;;4.25;2.67;;;;;;;;;;5035086;28;20112;-82
2023/07/16 08:25:56;;;;;;;4.75;2.80;;;;;;;;;;5042494;28;20045;-85
2023/07/16 08:28:22;;;;;;;8.15;2.53;;;;;;;;;;5047581;28;20163;-83
2023/07/16 08:30:48;;;;;;;6.03;3.00;;;;;;;;;;5033068;28;20480;-83
2023/07/16 08:33:14;;;;;;;6.05;3.35;;;;;;;;;;5038090;28;20037;-82
2023/07/16 08:35:40;;;;;;;5.10;2.90;;;;;;;;;;5052931;28;20375;-84
2023/07/16 08:38:10;;;;;;;5.55;2.53;;;;;;;;;;5053800;28;20044;-83
2023/07/16 08:40:39;;;;;;;5.82;3.08;;;;;;;;;;5049073;28;20525;-84
2023/07/16 08:43:07;;;;;;;6.32;3.05;;;;;;;;;;5048095;28;20040;-85
2023/07/16 08:45:36;;;;;;;7.10;3.00;;;;;;;;;;5063229;28;20372;-85
2023/07/16 08:48:02;;;;;;;6.70;2.88;;;;;;;;;;5066691;28;20144;-84
2023/07/16 08:50:29;;;;;;;7.68;2.83;;;;;;;;;;5048979;28;20037;-85
2023/07/16 08:52:56;;;;;;;7.05;3.08;;;;;;;;;;5043920;28;20052;-85
2023/07/16 08:55:22;;;;;;;4.55;2.90;;;;;;;;;;5037287;28;20067;-87
2023/07/16 08:57:48;;;;;;;4.10;2.20;;;;;;;;;;5049491;28;20037;-85
2023/07/16 09:00:15;;;;;;;5.20;3.22;;;;;;;;;;5035696;28;20049;-88
2023/07/16 09:02:41;;;;;;;5.13;3.03;;;;;;;;;;5046824;28;20154;-85
2023/07/16 09:05:09;;;;;;;5.82;2.92;;;;;;;;;;5033986;28;20047;-84
2023/07/16 09:07:37;;;;;;;7.57;3.03;;;;;;;;;;5029602;28;20053;-85
2023/07/16 09:10:03;;;;;;;8.10;3.50;;;;;;;;;;5028981;28;20068;-87
2023/07/16 09:12:29;;;;;;;4.43;2.60;;;;;;;;;;5066016;28;20105;-85
2023/07/16 09:14:56;;;;;;;7.68;3.17;;;;;;;;;;5026171;28;20402;-83
2023/07/16 09:17:23;;;;;;;6.35;2.83;;;;;;;;;;5046037;28;20049;-83
2023/07/16 09:19:50;;;;;;;5.70;2.70;;;;;;;;;;5042476;28;20103;-84
2023/07/16 09:22:18;;;;;;;6.40;3.28;;;;;;;;;;5046333;28;20045;-84
2023/07/16 09:24:45;;;;;;;4.45;2.75;;;;;;;;;;5047495;28;20059;-84
2023/07/16 09:27:12;;;;;;;6.25;3.17;;;;;;;;;;5047591;28;20051;-83
2023/07/16 09:29:39;;;;;;;5.85;2.80;;;;;;;;;;5046787;28;20053;-82
2023/07/16 09:32:05;;;;;;;6.53;3.67;;;;;;;;;;5049145;28;20496;-84
2023/07/16 09:34:31;;;;;;;5.63;2.58;;;;;;;;;;5046483;28;20447;-84
2023/07/16 09:36:58;;;;;;;7.32;3.35;;;;;;;;;;5039207;28;20029;-85
2023/07/16 09:39:25;;;;;;;4.28;2.97;;;;;;;;;;5048493;28;20076;-86
2023/07/16 09:41:51;;;;;;;5.95;3.45;;;;;;;;;;5050863;28;20045;-86
2023/07/16 09:44:18;;;;;;;8.32;3.58;;;;;;;;;;5031781;28;20397;-85
2023/07/16 09:46:44;;;;;;;9.40;3.40;;;;;;;;;;5051807;28;20143;-84
2023/07/16 09:49:11;;;;;;;4.95;2.83;;;;;;;;;;5051314;28;20041;-88
2023/07/16 09:51:37;;;;;;;7.00;3.33;;;;;;;;;;5032849;28;20437;-86
2023/07/16 09:54:04;;;;;;;6.50;3.28;;;;;;;;;;5050946;28;20072;-84
2023/07/16 09:56:34;;;;;;;6.35;3.00;;;;;;;;;;5050793;28;20049;-84
2023/07/16 09:59:01;;;;;;;6.20;3.35;;;;;;;;;;5051138;28;20442;-85
2023/07/16 10:01:29;;;;;;;5.38;3.05;;;;;;;;;;5040179;28;20052;-86
2023/07/16 10:03:55;;;;;;;7.07;3.60;;;;;;;;;;5030643;28;20048;-84
2023/07/16 10:06:21;;;;;;;7.13;3.63;;;;;;;;;;5029752;28;20037;-84
2023/07/16 10:08:51;;;;;;;6.13;3.22;;;;;;;;;;5047814;28;20120;-82
2023/07/16 10:11:17;;;;;;;6.53;3.53;;;;;;;;;;5051821;28;20434;-84
2023/07/16 10:13:43;;;;;;;6.68;3.40;;;;;;;;;;5050708;28;20068;-83
2023/07/16 10:16:20;;;;;;;4.50;2.90;;;;;;;;;;5051224;28;20339;-84
2023/07/16 10:18:54;;;;;;;5.95;2.97;;;;;;;;;;5051495;28;20045;-84
2023/07/16 10:21:24;;;;;;;4.20;2.58;;;;;;;;;;5050037;28;20044;-82
2023/07/16 10:23:58;;;;;;;5.95;3.25;;;;;;;;;;5049830;28;20084;-83
2023/07/16 10:26:28;;;;;;;3.20;2.40;;;;;;;;;;5050279;28;20095;-83
2023/07/16 10:28:54;;;;;;;5.72;2.90;;;;;;;;;;5050294;28;20037;-84
2023/07/16 10:31:24;;;;;;;7.63;2.90;;;;;;;;;;5048969;28;20117;-84
2023/07/16 10:33:50;;;;;;;;;;;;;;;;;;5035121;28;20041;-84
2023/07/16 10:36:20;;;;;;;5.07;3.28;;;;;;;;;;5044391;28;19928;-85
2023/07/16 10:38:46;;;;;;;7.55;3.70;;;;;;;;;;5050174;28;20053;-83
2023/07/16 10:41:12;;;;;;;7.95;3.85;;;;;;;;;;5042046;28;20045;-84
2023/07/16 10:43:38;;;;;;;8.10;3.22;;;;;;;;;;5028492;28;20064;-84
2023/07/16 10:46:04;;;;;;;5.93;3.00;;;;;;;;;;5031821;28;20124;-84
2023/07/16 10:48:30;;;;;;;7.53;3.40;;;;;;;;;;5029467;28;20133;-84
2023/07/16 10:50:56;;;;;;;5.40;3.40;;;;;;;;;;5023225;28;20369;-84
2023/07/16 10:53:22;;;;;;;5.40;3.15;;;;;;;;;;5050084;28;20051;-84
2023/07/16 10:55:48;;;;;;;5.25;3.22;;;;;;;;;;5051149;28;20127;-83
2023/07/16 10:58:14;;;;;;;5.72;3.35;;;;;;;;;;5044928;28;20120;-88
2023/07/16 11:00:40;;;;;;;4.40;3.45;;;;;;;;;;5030837;28;20141;-85
2023/07/16 11:03:06;;;;;;;4.75;2.83;;;;;;;;;;5028090;28;20045;-83
2023/07/16 11:05:32;;;;;;;6.15;3.22;;;;;;;;;;5029724;28;20402;-83
2023/07/16 11:07:58;;;;;;;5.60;2.85;;;;;;;;;;5029492;28;20038;-82
2023/07/16 11:10:25;;;;;;;4.05;2.80;;;;;;;;;;5012985;28;20128;-84
2023/07/16 11:12:55;;;;;;;4.13;3.25;;;;;;;;;;5029453;28;20061;-85
2023/07/16 11:15:34;;;;;;;4.43;2.22;;;;;;;;;;5038008;28;20094;-83
2023/07/16 11:18:01;;;;;;;6.40;3.13;;;;;;;;;;5048917;28;20045;-84
2023/07/16 11:20:29;;;;;;;5.70;2.90;;;;;;;;;;5049261;28;20047;-85
2023/07/16 11:22:55;;;;;;;6.38;3.20;;;;;;;;;;5051016;28;20047;-86
2023/07/16 11:25:24;;;;;;;6.00;3.17;;;;;;;;;;5047031;28;20080;-84
2023/07/16 11:27:54;;;;;;;4.25;3.08;;;;;;;;;;5050514;28;20077;-85
2023/07/16 11:30:23;;;;;;;6.25;2.95;;;;;;;;;;5048980;28;20041;-85
2023/07/16 11:32:49;;;;;;;6.78;3.55;;;;;;;;;;5047143;28;20044;-83
2023/07/16 11:35:18;;;;;;;5.70;3.20;;;;;;;;;;5049204;28;20041;-84
2023/07/16 11:37:45;;;;;;;6.53;3.22;;;;;;;;;;5050403;28;20041;-85
2023/07/16 11:40:12;;;;;;;6.55;3.63;;;;;;;;;;5049816;28;20041;-84
2023/07/16 11:42:39;;;;;;;4.40;2.85;;;;;;;;;;5048300;28;20049;-89
2023/07/16 11:45:06;;;;;;;4.47;3.00;;;;;;;;;;5049366;28;20429;-86
2023/07/16 11:47:32;;;;;;;5.05;3.13;;;;;;;;;;5048222;28;20675;-83
2023/07/16 11:49:58;;;;;;;5.22;3.05;;;;;;;;;;5048579;28;20043;-82
2023/07/16 11:52:25;;;;;;;4.95;3.05;;;;;;;;;;5048730;28;20115;-84
2023/07/16 11:54:59;;;;;;;5.07;2.90;;;;;;;;;;5036846;28;20043;-83
2023/07/16 11:57:25;;;;;;;3.90;3.38;;;;;;;;;;5063897;28;20129;-84
2023/07/16 11:59:51;;;;;;;6.35;3.35;;;;;;;;;;5047313;28;20071;-85
2023/07/16 12:02:17;;;;;;;6.63;3.20;;;;;;;;;;5048521;28;20045;-85
2023/07/16 12:04:44;;;;;;;6.40;3.40;;;;;;;;;;5046629;28;20484;-84
2023/07/16 12:07:10;;;;;;;5.90;3.58;;;;;;;;;;5050436;28;20116;-85
2023/07/16 12:09:36;;;;;;;5.85;3.33;;;;;;;;;;5045923;28;20048;-83
2023/07/16 12:12:02;;;;;;;5.65;2.33;;;;;;;;;;5049844;28;20052;-86
2023/07/16 12:14:28;;;;;;;4.70;3.72;;;;;;;;;;5039187;28;20029;-82
2023/07/16 12:16:55;;;;;;;7.60;3.03;;;;;;;;;;5032061;28;20087;-84
2023/07/16 12:19:21;;;;;;;5.78;3.33;;;;;;;;;;5027806;28;20060;-84
2023/07/16 12:21:48;;;;;;;6.47;3.00;;;;;;;;;;5030096;28;20072;-85
2023/07/16 12:24:14;;;;;;;8.93;4.18;;;;;;;;;;5030138;28;20465;-84
2023/07/16 12:26:40;;;;;;;7.78;3.42;;;;;;;;;;5033590;28;20080;-85
2023/07/16 12:29:06;;;;;;;5.72;3.28;;;;;;;;;;5034324;28;20087;-85
2023/07/16 12:31:32;;;;;;;5.03;2.80;;;;;;;;;;5068365;28;20091;-85
2023/07/16 12:33:59;;;;;;;7.30;4.28;;;;;;;;;;5068661;28;20046;-84
2023/07/16 12:36:25;;;;;;;6.50;3.00;;;;;;;;;;5064625;28;20769;-83
2023/07/16 12:38:51;;;;;;;6.43;3.05;;;;;;;;;;5046379;28;20091;-85
2023/07/16 12:41:17;;;;;;;3.75;2.95;;;;;;;;;;5049960;28;20068;-85
2023/07/16 12:43:43;;;;;;;6.47;3.85;;;;;;;;;;5050433;28;20029;-88
2023/07/16 12:46:09;;;;;;;6.18;3.20;;;;;;;;;;5049005;28;20044;-85
2023/07/16 12:48:35;;;;;;;5.45;2.88;;;;;;;;;;5049115;28;20048;-84
2023/07/16 12:51:01;;;;;;;3.90;3.33;;;;;;;;;;5048766;28;20052;-84
2023/07/16 12:53:27;;;;;;;5.55;3.15;;;;;;;;;;5048006;28;20051;-90
2023/07/16 12:55:53;;;;;;;5.65;3.33;;;;;;;;;;5047703;28;20033;-87
2023/07/16 12:58:20;;;;;;;6.88;3.65;;;;;;;;;;5036436;28;20449;-86
2023/07/16 13:00:46;;;;;;;6.25;2.75;;;;;;;;;;5061515;28;20107;-86
2023/07/16 13:03:14;;;;;;;7.63;3.10;;;;;;;;;;5047167;28;20049;-86
2023/07/16 13:05:40;;;;;;;3.17;2.13;;;;;;;;;;5038558;28;20112;-83
2023/07/16 13:08:06;;;;;;;4.35;2.67;;;;;;;;;;5011776;28;20045;-86
2023/07/16 13:10:32;;;;;;;5.05;2.80;;;;;;;;;;5028709;28;20042;-84
2023/07/16 13:12:58;;;;;;;4.70;3.10;;;;;;;;;;5029550;28;20053;-86
2023/07/16 13:15:24;;;;;;;6.63;2.97;;;;;;;;;;5030126;28;20094;-87
2023/07/16 13:17:50;;;;;;;4.90;2.80;;;;;;;;;;5043610;28;20045;-85
2023/07/16 13:20:16;;;;;;;5.75;2.53;;;;;;;;;;5033362;28;20048;-85
2023/07/16 13:22:42;;;;;;;5.80;2.90;;;;;;;;;;5032201;28;20402;-87
2023/07/16 13:25:08;;;;;;;6.03;3.05;;;;;;;;;;5033467;28;20068;-85
2023/07/16 13:27:35;;;;;;;4.88;2.72;;;;;;;;;;5030811;28;20045;-84
2023/07/16 13:30:01;;;;;;;3.95;2.90;;;;;;;;;;5033208;28;20120;-89
2023/07/16 13:32:27;;;;;;;5.80;3.20;;;;;;;;;;5031361;28;20037;-84
2023/07/16 13:34:56;;;;;;;4.03;2.67;;;;;;;;;;5031786;28;20041;-87
2023/07/16 13:37:22;;;;;;;4.32;2.30;;;;;;;;;;5032684;28;20087;-86
2023/07/16 13:39:48;;;;;;;2.92;2.25;;;;;;;;;;5032583;28;20124;-90
2023/07/16 13:42:14;;;;;;;7.45;3.10;;;;;;;;;;5018839;28;20033;-83
2023/07/16 13:44:40;;;;;;;3.67;2.92;;;;;;;;;;5034238;28;20048;-84
2023/07/16 13:47:06;;;;;;;6.00;2.40;;;;;;;;;;5050601;28;20040;-87
2023/07/16 13:49:32;;;;;;;4.30;2.28;;;;;;;;;;5031070;28;20490;-85
2023/07/16 13:51:58;;;;;;;4.95;2.63;;;;;;;;;;5047431;28;20056;-84
2023/07/16 13:54:24;;;;;;;5.28;2.38;;;;;;;;;;5050753;28;20045;-84
2023/07/16 13:56:50;;;;;;;4.68;2.85;;;;;;;;;;5049885;28;20080;-88
2023/07/16 13:59:16;;;;;;;2.17;1.85;;;;;;;;;;5021677;28;20044;-89
2023/07/16 14:01:42;;;;;;;3.38;1.83;;;;;;;;;;5031201;28;20553;-83
2023/07/16 14:04:08;;;;;;;3.63;2.13;;;;;;;;;;5014517;28;20095;-83
2023/07/16 14:06:34;;;;;;;1.70;1.35;;;;;;;;;;5031890;28;20044;-84
2023/07/16 14:09:01;;;;;;;2.83;1.77;;;;;;;;;;5038308;28;20045;-83
2023/07/16 14:11:27;;;;;;;3.30;1.70;;;;;;;;;;5050147;28;20049;-86
2023/07/16 14:13:53;;;;;;;2.00;1.38;;;;;;;;;;5050967;28;20441;-84
2023/07/16 14:16:19;;;;;;;2.40;1.50;;;;;;;;;;5051838;28;20387;-84
2023/07/16 14:18:45;;;;;;;2.60;1.60;;;;;;;;;;5037876;28;20049;-85
2023/07/16 14:21:11;;;;;;;2.95;1.60;;;;;;;;;;5032371;28;20037;-85
2023/07/16 14:23:37;;;;;;;3.40;1.73;;;;;;;;;;5030033;28;20060;-84
2023/07/16 14:26:03;;;;;;;3.42;1.88;;;;;;;;;;5029158;28;20046;-83
2023/07/16 14:28:29;;;;;;;2.00;1.67;;;;;;;;;;5030732;28;20483;-84
2023/07/16 14:30:55;;;;;;;1.80;1.20;;;;;;;;;;5031760;28;20049;-82
2023/07/16 14:33:22;;;;;;;5.50;1.58;;;;;;;;;;5049028;28;20437;-87
2023/07/16 14:35:48;;;;;;;2.58;1.50;;;;;;;;;;5033389;28;20129;-86
2023/07/16 14:38:14;;;;;;;2.55;1.50;;;;;;;;;;5039259;28;20421;-85
2023/07/16 14:40:41;;;;;;;5.03;1.45;;;;;;;;;;5049352;28;20405;-83